Time;durP1;ratioP1;P1;durP2;ratioP2;P2;SDS_P1;SDS_P2;PMS_P1;PMS_P2;Temp;Humidity;BMP_temperature;BMP_pressure;BME280_temperature;BME280_humidity;BME280_pressure;Samples;Min_cycle;Max_cycle;Signal;HPM_P1;HPM_P2
2023/06/13 05:01:18;;;;;;;8.23;2.25;;;17.20;68.40;;;;;;6049655;23;20021;31
2023/06/13 05:03:45;;;;;;;4.85;3.22;;;17.20;68.20;;;;;;4956295;29;20271;-70
2023/06/13 05:06:12;;;;;;;4.72;2.65;;;17.30;68.80;;;;;;4960420;29;20047;-71
2023/06/13 05:08:38;;;;;;;4.65;2.70;;;17.30;68.20;;;;;;4965245;29;20147;-71
2023/06/13 05:11:04;;;;;;;5.45;2.35;;;17.30;69.20;;;;;;4951200;29;20231;-72
2023/06/13 05:13:30;;;;;;;5.18;2.72;;;17.40;68.10;;;;;;4946401;29;20031;-74
2023/06/13 05:15:56;;;;;;;4.85;2.70;;;17.50;68.80;;;;;;4946595;29;20059;-70
2023/06/13 05:18:24;;;;;;;5.25;2.47;;;17.50;68.20;;;;;;4951395;29;20022;-71
2023/06/13 05:20:50;;;;;;;3.80;2.38;;;17.50;68.20;;;;;;4965871;29;20035;-71
2023/06/13 05:23:16;;;;;;;4.97;2.20;;;17.50;68.70;;;;;;4953583;28;20043;-70
2023/06/13 05:25:42;;;;;;;4.60;2.75;;;17.50;68.80;;;;;;4945777;29;20027;-70
2023/06/13 05:28:08;;;;;;;5.63;2.40;;;17.60;66.60;;;;;;4946618;29;20027;-70
2023/06/13 05:30:33;;;;;;;6.00;3.15;;;17.60;67.50;;;;;;4946001;29;20035;-71
2023/06/13 05:32:59;;;;;;;4.90;2.55;;;17.70;68.70;;;;;;4946411;29;20051;-70
2023/06/13 05:35:25;;;;;;;8.43;3.05;;;17.70;68.30;;;;;;4946366;29;20035;-70
2023/06/13 05:37:51;;;;;;;6.90;3.38;;;17.70;68.00;;;;;;4946324;29;20034;-70
2023/06/13 05:40:17;;;;;;;5.03;2.50;;;17.80;68.20;;;;;;4945975;29;20055;-70
2023/06/13 05:42:43;;;;;;;5.40;2.90;;;17.80;67.70;;;;;;4945262;29;20305;-70
2023/06/13 05:45:09;;;;;;;4.93;2.42;;;17.80;67.00;;;;;;4949371;29;20111;-70
2023/06/13 05:47:35;;;;;;;6.40;2.35;;;17.90;67.00;;;;;;4945698;29;20032;-70
2023/06/13 05:50:02;;;;;;;4.82;2.50;;;18.00;66.40;;;;;;4945743;29;20225;-70
2023/06/13 05:52:28;;;;;;;6.63;2.38;;;18.00;66.00;;;;;;4945129;29;20036;-72
2023/06/13 05:54:54;;;;;;;6.32;1.90;;;18.10;65.60;;;;;;4945993;29;20384;-71
2023/06/13 05:57:19;;;;;;;6.85;2.10;;;18.20;65.20;;;;;;4946046;29;20028;-70
2023/06/13 05:59:45;;;;;;;8.20;2.35;;;18.20;62.70;;;;;;4945466;29;20059;-70
2023/06/13 06:02:11;;;;;;;3.88;2.13;;;18.20;64.10;;;;;;4945281;29;20047;-71
2023/06/13 06:04:37;;;;;;;4.47;2.40;;;18.30;64.90;;;;;;4948595;29;20020;-71
2023/06/13 06:07:04;;;;;;;6.20;2.55;;;18.40;64.40;;;;;;4945795;29;20051;-72
2023/06/13 06:09:30;;;;;;;4.65;2.30;;;18.50;64.40;;;;;;4948897;29;20019;-70
2023/06/13 06:11:56;;;;;;;4.65;2.30;;;18.60;64.00;;;;;;4964767;28;20062;-70
2023/06/13 06:14:21;;;;;;;5.07;2.50;;;18.60;62.80;;;;;;4964624;29;20053;-71
2023/06/13 06:16:49;;;;;;;7.55;2.60;;;18.60;62.80;;;;;;4964219;29;20031;-70
2023/06/13 06:19:15;;;;;;;11.35;2.63;;;18.70;63.20;;;;;;4963784;29;20035;-70
2023/06/13 06:21:41;;;;;;;17.13;3.47;;;18.80;63.10;;;;;;4964460;29;20039;-71
2023/06/13 06:24:07;;;;;;;19.90;4.05;;;18.90;62.60;;;;;;4963486;28;20030;-71
2023/06/13 06:26:33;;;;;;;11.35;3.50;;;18.90;60.90;;;;;;4944848;29;20032;-72
2023/06/13 06:28:58;;;;;;;10.18;2.65;;;19.00;61.80;;;;;;4945589;29;20024;-72
2023/06/13 06:31:24;;;;;;;7.00;2.70;;;19.10;59.50;;;;;;4945514;29;20422;-73
2023/06/13 06:33:50;;;;;;;4.35;2.10;;;19.00;57.70;;;;;;4943851;29;20026;-71
2023/06/13 06:36:16;;;;;;;5.55;2.20;;;19.10;57.40;;;;;;4945150;29;20023;-71
2023/06/13 06:38:42;;;;;;;6.43;2.90;;;19.20;58.10;;;;;;4944901;29;20072;-70
2023/06/13 06:41:08;;;;;;;4.32;2.45;;;19.30;56.90;;;;;;4952765;29;20031;-69
2023/06/13 06:43:34;;;;;;;4.55;2.53;;;19.40;56.90;;;;;;4958719;29;20213;-70
2023/06/13 06:46:07;;;;;;;7.32;2.63;;;19.50;56.70;;;;;;4958934;29;20050;-70
2023/06/13 06:48:33;;;;;;;5.15;2.10;;;19.40;56.20;;;;;;4944788;29;20313;-70
2023/06/13 06:50:59;;;;;;;9.30;2.60;;;19.50;56.70;;;;;;4944986;29;20035;-70
2023/06/13 06:53:25;;;;;;;10.65;3.10;;;19.70;56.60;;;;;;4945253;29;20028;-70
2023/06/13 06:55:50;;;;;;;12.63;3.10;;;19.80;55.80;;;;;;4944690;29;20336;-69
2023/06/13 06:58:16;;;;;;;5.13;2.47;;;19.90;55.70;;;;;;4945161;29;20039;-70
2023/06/13 07:00:41;;;;;;;7.10;1.98;;;20.00;55.30;;;;;;4944853;29;20024;-69
2023/06/13 07:03:07;;;;;;;7.90;2.83;;;20.00;56.40;;;;;;4944237;29;20035;-70
2023/06/13 07:05:33;;;;;;;4.25;2.20;;;20.10;55.40;;;;;;4944659;29;20327;-69
2023/06/13 07:07:59;;;;;;;13.85;3.40;;;20.10;55.10;;;;;;4944680;29;20049;-69
2023/06/13 07:10:26;;;;;;;15.75;3.53;;;20.20;55.70;;;;;;4957072;29;20019;-68
2023/06/13 07:12:52;;;;;;;10.00;3.08;;;20.20;55.30;;;;;;4963554;28;20249;-69
2023/06/13 07:15:18;;;;;;;7.50;2.33;;;20.20;54.10;;;;;;4964024;28;20042;-70
2023/06/13 07:17:43;;;;;;;7.05;1.92;;;20.30;53.90;;;;;;4961180;28;20031;-69
2023/06/13 07:20:11;;;;;;;6.25;3.28;;;20.40;54.40;;;;;;4946421;29;20107;-70
2023/06/13 07:22:37;;;;;;;5.97;2.42;;;20.50;54.50;;;;;;4947824;29;20038;-72
2023/06/13 07:25:03;;;;;;;5.15;2.20;;;20.50;54.00;;;;;;4948419;29;20035;-70
2023/06/13 07:27:29;;;;;;;5.22;1.95;;;20.70;54.00;;;;;;4948484;29;20032;-70
2023/06/13 07:29:55;;;;;;;3.63;2.10;;;20.60;54.00;;;;;;4947808;29;20043;-70
2023/06/13 07:32:20;;;;;;;5.03;2.50;;;20.70;54.20;;;;;;4948313;29;20036;-71
2023/06/13 07:34:46;;;;;;;5.55;2.10;;;20.80;53.90;;;;;;4947654;29;20032;-70
2023/06/13 07:37:12;;;;;;;5.78;1.98;;;20.90;53.20;;;;;;4948020;29;20132;-70
2023/06/13 07:39:37;;;;;;;6.05;2.15;;;20.90;53.40;;;;;;4947061;29;20185;-70
2023/06/13 07:42:05;;;;;;;9.75;4.10;;;20.90;53.50;;;;;;4948497;29;20087;-70
2023/06/13 07:44:31;;;;;;;5.75;2.80;;;21.00;52.90;;;;;;4948223;29;20036;-70
2023/06/13 07:46:57;;;;;;;6.40;2.47;;;21.00;53.00;;;;;;4958729;29;20161;-70
2023/06/13 07:49:23;;;;;;;10.05;2.25;;;21.00;53.20;;;;;;4964291;28;20254;-69
2023/06/13 07:51:48;;;;;;;6.57;2.03;;;21.10;52.10;;;;;;4947448;29;20317;-70
2023/06/13 07:54:14;;;;;;;5.30;2.40;;;21.10;52.20;;;;;;4958769;29;20083;-72
2023/06/13 07:56:40;;;;;;;4.90;2.28;;;21.10;52.20;;;;;;4947190;29;20090;-70
2023/06/13 07:59:06;;;;;;;5.22;1.90;;;21.00;52.70;;;;;;4958062;29;20308;-70
2023/06/13 08:01:32;;;;;;;3.58;2.08;;;21.00;52.40;;;;;;4966616;28;20030;-71
2023/06/13 08:03:58;;;;;;;6.38;2.45;;;20.90;51.90;;;;;;4966857;29;20241;-71
2023/06/13 08:06:24;;;;;;;4.35;2.20;;;21.00;52.80;;;;;;4966993;28;20046;-71
2023/06/13 08:08:49;;;;;;;4.45;2.28;;;21.10;52.80;;;;;;4966549;29;20050;-70
2023/06/13 08:11:15;;;;;;;5.32;2.35;;;21.20;53.00;;;;;;4959200;29;20198;-70
2023/06/13 08:13:41;;;;;;;5.80;2.50;;;21.30;52.40;;;;;;4966589;28;20035;-71
2023/06/13 08:16:07;;;;;;;4.13;2.30;;;21.40;52.30;;;;;;4965842;29;20057;-71
2023/06/13 08:18:33;;;;;;;11.90;2.83;;;21.60;52.80;;;;;;4963155;28;20038;-71
2023/06/13 08:20:59;;;;;;;5.93;2.25;;;21.70;53.20;;;;;;4957491;29;20033;-70
2023/06/13 08:23:24;;;;;;;7.30;2.15;;;21.70;53.10;;;;;;4952665;29;20109;-71
2023/06/13 08:25:50;;;;;;;6.68;2.40;;;21.90;53.60;;;;;;4947033;29;20035;-71
2023/06/13 08:28:16;;;;;;;11.68;2.38;;;22.00;53.00;;;;;;4947105;29;20047;-70
2023/06/13 08:30:42;;;;;;;4.10;2.08;;;22.00;52.40;;;;;;4946676;29;20087;-69
2023/06/13 08:33:10;;;;;;;6.57;2.88;;;22.20;52.80;;;;;;4947284;29;20023;-71
2023/06/13 08:35:37;;;;;;;3.58;2.35;;;22.20;52.30;;;;;;4961738;28;20087;-72
2023/06/13 08:38:03;;;;;;;8.60;2.40;;;22.20;52.20;;;;;;4947289;29;20031;-72
2023/06/13 08:40:29;;;;;;;6.57;2.60;;;22.20;52.20;;;;;;4947287;29;20031;-71
2023/06/13 08:42:55;;;;;;;8.00;2.88;;;22.30;52.20;;;;;;4946562;29;20067;-72
2023/06/13 08:45:21;;;;;;;7.70;2.72;;;22.30;51.50;;;;;;4947056;29;20035;-72
2023/06/13 08:47:48;;;;;;;9.95;2.80;;;22.40;50.40;;;;;;4946533;29;20301;-74
2023/06/13 08:50:18;;;;;;;5.57;2.70;;;22.40;51.30;;;;;;4945947;29;20035;-70
2023/06/13 08:52:46;;;;;;;6.60;2.38;;;22.40;50.50;;;;;;4946735;29;20102;-72
2023/06/13 08:55:16;;;;;;;8.98;4.07;;;22.40;50.70;;;;;;4947088;29;20035;-73
2023/06/13 08:57:42;;;;;;;5.43;2.60;;;22.40;50.50;;;;;;4947161;29;20031;-73
2023/06/13 09:00:12;;;;;;;7.18;2.47;;;22.50;50.40;;;;;;4953886;29;20020;-74
2023/06/13 09:02:45;;;;;;;11.20;3.22;;;22.60;50.80;;;;;;4953659;29;20035;-73
2023/06/13 09:05:18;;;;;;;17.27;11.25;;;22.50;51.20;;;;;;4964898;29;20325;-71
2023/06/13 09:07:47;;;;;;;7.82;4.10;;;22.60;50.80;;;;;;4951451;28;20041;-71
2023/06/13 09:10:13;;;;;;;9.70;4.40;;;22.70;50.60;;;;;;4956468;29;20027;-70
2023/06/13 09:12:45;;;;;;;9.13;2.78;;;22.70;49.40;;;;;;4965392;29;20066;-70
2023/06/13 09:15:11;;;;;;;8.18;5.68;;;22.70;50.10;;;;;;4948475;28;20035;-72
2023/06/13 09:17:37;;;;;;;7.28;2.97;;;22.70;51.20;;;;;;4946394;29;20256;-72
2023/06/13 09:20:06;;;;;;;7.85;3.15;;;22.60;51.50;;;;;;4945814;29;20328;-71
2023/06/13 09:22:35;;;;;;;11.20;4.18;;;22.70;51.40;;;;;;4946257;29;20038;-69
2023/06/13 09:25:04;;;;;;;6.00;2.80;;;22.70;51.40;;;;;;4945438;29;20050;-71
2023/06/13 09:27:30;;;;;;;4.22;2.83;;;22.90;51.90;;;;;;4946162;29;20090;-71
2023/06/13 09:30:00;;;;;;;6.20;2.35;;;23.10;51.60;;;;;;4945494;29;20105;-71
2023/06/13 09:32:26;;;;;;;7.00;2.60;;;23.10;51.40;;;;;;4946088;29;20047;-72
2023/06/13 09:34:52;;;;;;;5.22;2.58;;;23.30;49.60;;;;;;4945549;29;20036;-73
2023/06/13 09:37:18;;;;;;;5.68;2.30;;;23.20;50.00;;;;;;4945768;29;20036;-72
2023/06/13 09:39:50;;;;;;;5.25;2.33;;;23.20;49.80;;;;;;4945322;29;20028;-71
2023/06/13 09:42:23;;;;;;;5.28;2.50;;;23.20;49.10;;;;;;4945691;29;20059;-73
2023/06/13 09:44:50;;;;;;;4.82;2.40;;;23.40;49.10;;;;;;4951909;29;20038;-72
2023/06/13 09:47:23;;;;;;;7.70;2.45;;;23.40;48.70;;;;;;4962134;28;20058;-71
2023/06/13 09:49:57;;;;;;;4.80;2.70;;;23.50;48.90;;;;;;4964571;28;20058;-71
2023/06/13 09:52:26;;;;;;;4.60;2.40;;;23.50;49.40;;;;;;4964889;28;20053;-74
2023/06/13 09:54:53;;;;;;;5.93;2.63;;;23.50;49.60;;;;;;4964216;28;20031;-72
2023/06/13 09:57:20;;;;;;;6.82;3.80;;;23.60;49.00;;;;;;4965074;28;20050;-71
2023/06/13 09:59:47;;;;;;;5.28;2.30;;;23.70;48.40;;;;;;4964241;28;20156;-72
2023/06/13 10:02:17;;;;;;;7.70;2.83;;;23.70;48.10;;;;;;4964723;28;20042;-72
2023/06/13 10:04:43;;;;;;;12.90;2.75;;;23.80;48.70;;;;;;4963896;28;20035;-72
2023/06/13 10:07:13;;;;;;;3.95;2.22;;;23.90;47.40;;;;;;4964954;28;20098;-72
2023/06/13 10:09:39;;;;;;;4.60;2.15;;;23.80;48.10;;;;;;4964556;28;20317;-72
2023/06/13 10:12:11;;;;;;;4.07;2.10;;;23.90;47.70;;;;;;4963896;29;20046;-71
2023/06/13 10:14:41;;;;;;;5.40;2.15;;;24.00;47.70;;;;;;4961954;28;20301;-73
2023/06/13 10:17:11;;;;;;;9.15;2.80;;;24.10;47.50;;;;;;4964497;28;20027;-72
2023/06/13 10:19:39;;;;;;;6.32;2.58;;;24.20;47.40;;;;;;4964480;28;20059;-71
2023/06/13 10:22:09;;;;;;;6.00;2.38;;;24.30;46.70;;;;;;4963918;28;20209;-72
2023/06/13 10:24:36;;;;;;;5.22;2.50;;;24.40;47.00;;;;;;4964659;28;20042;-73
2023/06/13 10:27:03;;;;;;;5.03;2.30;;;24.40;47.00;;;;;;4964138;28;20043;-72
2023/06/13 10:30:08;;;;;;;5.50;2.67;;;24.50;47.60;;;;;;4964555;28;20054;-73
2023/06/13 10:33:06;;;;;;;3.95;2.50;;;24.50;47.70;;;;;;4956945;29;20091;-73
2023/06/13 10:35:44;;;;;;;3.63;1.98;;;24.50;47.80;;;;;;4944433;29;20111;-72
2023/06/13 10:38:48;;;;;;;6.72;2.17;;;24.50;47.20;;;;;;4945377;29;20051;-73
2023/06/13 10:41:26;;;;;;;4.80;2.70;;;24.50;47.20;;;;;;4945348;29;20094;-73
2023/06/13 10:44:01;;;;;;;6.20;2.10;;;24.60;47.10;;;;;;4944772;29;20038;-70
2023/06/13 10:46:28;;;;;;;7.82;2.30;;;24.70;45.70;;;;;;4944994;29;20386;-71
2023/06/13 10:48:54;;;;;;;7.82;2.60;;;24.70;46.10;;;;;;4963464;29;20309;-72
2023/06/13 10:51:27;;;;;;;7.07;2.40;;;24.70;45.70;;;;;;4964423;29;20042;-74
2023/06/13 10:54:14;;;;;;;6.15;2.20;;;24.80;46.00;;;;;;4963857;28;20023;-72
2023/06/13 10:56:42;;;;;;;4.75;2.40;;;24.90;45.80;;;;;;4967262;29;20173;-73
2023/06/13 10:59:11;;;;;;;4.47;2.33;;;25.00;46.80;;;;;;4967383;28;20380;-73
2023/06/13 11:01:39;;;;;;;5.82;2.30;;;25.10;47.20;;;;;;4967767;29;20170;-75
2023/06/13 11:04:07;;;;;;;4.15;2.50;;;25.30;45.80;;;;;;4967602;28;20393;-72
2023/06/13 11:06:33;;;;;;;6.00;2.40;;;25.30;46.10;;;;;;4967616;29;20046;-73
2023/06/13 11:09:17;;;;;;;8.15;2.65;;;25.30;46.10;;;;;;4967243;28;20023;-71
2023/06/13 11:11:52;;;;;;;4.72;2.20;;;25.20;45.90;;;;;;4967740;29;20090;-74
2023/06/13 11:14:33;;;;;;;3.97;2.30;;;25.10;46.70;;;;;;4967988;28;20067;-72
2023/06/13 11:17:01;;;;;;;5.78;2.45;;;25.10;46.30;;;;;;4966999;28;20098;-70
2023/06/13 11:19:27;;;;;;;5.05;2.45;;;25.20;45.50;;;;;;4966712;29;20056;-70
2023/06/13 11:21:59;;;;;;;5.50;2.40;;;25.50;45.00;;;;;;4967105;29;20046;-69
2023/06/13 11:24:32;;;;;;;4.85;2.13;;;25.70;44.50;;;;;;4967858;29;20027;-70
2023/06/13 11:27:06;;;;;;;4.68;2.00;;;25.80;44.40;;;;;;4965864;29;20035;-70
2023/06/13 11:29:36;;;;;;;6.32;2.38;;;26.00;44.40;;;;;;4967395;28;20046;-71
2023/06/13 11:32:04;;;;;;;4.18;2.22;;;26.10;44.50;;;;;;4966778;28;20082;-69
2023/06/13 11:34:33;;;;;;;;;;;26.30;44.60;;;;;;4968130;28;20034;-69
2023/06/13 11:37:10;;;;;;;4.57;2.13;;;26.70;44.60;;;;;;4966596;28;19907;-70
2023/06/13 11:39:40;;;;;;;7.18;2.28;;;27.10;43.80;;;;;;4967651;28;20031;-69
2023/06/13 11:42:08;;;;;;;4.47;2.30;;;27.50;43.50;;;;;;4966847;29;20034;-70
2023/06/13 11:44:35;;;;;;;4.10;2.55;;;27.80;43.00;;;;;;4967142;29;20053;-70
2023/06/13 11:47:01;;;;;;;8.35;4.60;;;28.40;42.70;;;;;;4962326;29;20337;-71
2023/06/13 11:49:26;;;;;;;6.25;3.42;;;29.30;42.40;;;;;;4946797;29;20050;-71
2023/06/13 11:51:52;;;;;;;4.45;2.22;;;30.00;41.60;;;;;;4947122;29;20026;-71
2023/06/13 11:54:27;;;;;;;5.88;2.40;;;30.90;41.20;;;;;;4948327;29;20031;-72
2023/06/13 11:56:53;;;;;;;4.43;2.30;;;31.90;40.50;;;;;;4947199;29;20396;-73
2023/06/13 11:59:20;;;;;;;6.28;2.35;;;32.40;39.70;;;;;;4951873;29;20047;-73
2023/06/13 12:01:53;;;;;;;4.07;1.92;;;33.00;39.90;;;;;;4960337;28;20136;-73
2023/06/13 12:04:21;;;;;;;5.28;2.00;;;33.50;40.00;;;;;;4961785;29;20206;-74
2023/06/13 12:06:47;;;;;;;;;;;34.50;39.20;;;;;;4949371;29;20054;-74
2023/06/13 12:09:14;;;;;;;4.80;1.92;;;34.90;38.30;;;;;;4949147;29;19973;-75
2023/06/13 12:11:41;;;;;;;9.52;2.40;;;34.70;38.10;;;;;;4965584;29;20039;-73
2023/06/13 12:14:07;;;;;;;3.90;2.08;;;34.80;38.10;;;;;;4966330;29;20019;-75
2023/06/13 12:16:37;;;;;;;5.38;2.15;;;35.30;38.40;;;;;;4966850;29;20035;-73
2023/06/13 12:19:09;;;;;;;4.53;2.40;;;35.70;38.20;;;;;;4953480;29;20046;-75
2023/06/13 12:21:36;;;;;;;3.05;2.00;;;36.50;38.40;;;;;;4964406;29;20031;-75
2023/06/13 12:24:04;;;;;;;4.82;1.95;;;37.20;37.10;;;;;;4966246;28;20054;-74
2023/06/13 12:26:33;;;;;;;3.20;2.20;;;37.50;36.90;;;;;;4966634;28;20098;-74
2023/06/13 12:29:07;;;;;;;3.10;1.92;;;37.60;36.60;;;;;;4966358;28;20031;-76
2023/06/13 12:31:38;;;;;;;4.90;1.83;;;38.10;36.90;;;;;;4966668;29;20039;-73
2023/06/13 12:34:07;;;;;;;6.53;2.22;;;38.20;36.20;;;;;;4946756;29;20035;-74
2023/06/13 12:36:44;;;;;;;9.13;2.80;;;38.30;36.20;;;;;;4963291;29;20371;-73
2023/06/13 12:39:12;;;;;;;8.85;2.95;;;38.70;36.10;;;;;;4965844;29;20238;-74
2023/06/13 12:41:42;;;;;;;6.60;3.20;;;38.60;35.70;;;;;;4966657;29;20054;-75
2023/06/13 12:44:08;;;;;;;4.10;2.50;;;39.00;36.00;;;;;;4965980;28;20043;-73
2023/06/13 12:46:38;;;;;;;3.90;2.22;;;38.70;36.20;;;;;;4967121;28;20046;-74
2023/06/13 12:49:11;;;;;;;3.83;2.10;;;39.10;35.40;;;;;;4966168;28;20038;-72
2023/06/13 12:51:44;;;;;;;3.85;2.00;;;39.30;35.20;;;;;;4966203;28;20094;-74
2023/06/13 12:54:15;;;;;;;4.82;2.17;;;39.00;35.00;;;;;;4965632;28;20122;-75
2023/06/13 12:56:59;;;;;;;5.30;1.90;;;39.00;35.00;;;;;;4966173;28;20035;-75
2023/06/13 12:59:33;;;;;;;3.10;1.95;;;37.40;35.70;;;;;;4966150;28;20111;-74
2023/06/13 13:02:05;;;;;;;4.28;2.30;;;38.50;35.80;;;;;;4965378;28;20054;-73
2023/06/13 13:04:33;;;;;;;5.80;3.85;;;39.90;35.10;;;;;;4966247;28;20050;-73
2023/06/13 13:06:59;;;;;;;3.58;2.20;;;39.80;34.30;;;;;;4965157;28;20039;-74
2023/06/13 13:09:27;;;;;;;3.47;2.43;;;39.10;34.60;;;;;;4965581;29;20094;-73
2023/06/13 13:11:55;;;;;;;4.22;2.40;;;39.50;34.50;;;;;;4965447;28;20463;-74
2023/06/13 13:14:28;;;;;;;4.63;2.35;;;39.90;34.50;;;;;;4965844;28;20058;-73
2023/06/13 13:16:55;;;;;;;4.43;2.28;;;40.40;34.40;;;;;;4965205;28;20108;-75
2023/06/13 13:19:21;;;;;;;5.85;2.28;;;40.60;34.00;;;;;;4964867;29;20042;-74
2023/06/13 13:21:48;;;;;;;5.20;2.72;;;41.30;34.00;;;;;;4965300;28;20256;-73
2023/06/13 13:24:15;;;;;;;3.67;2.15;;;41.60;33.50;;;;;;4965140;28;20321;-73
2023/06/13 13:26:46;;;;;;;4.13;2.42;;;41.00;33.00;;;;;;4965376;29;20309;-75
2023/06/13 13:29:12;;;;;;;6.28;2.50;;;42.10;33.60;;;;;;4964567;28;20352;-74
2023/06/13 13:31:38;;;;;;;4.15;2.30;;;43.00;33.50;;;;;;4965401;28;20023;-72
2023/06/13 13:34:05;;;;;;;5.90;2.00;;;43.30;33.30;;;;;;4946045;29;20019;-72
2023/06/13 13:36:33;;;;;;;5.53;2.45;;;42.00;32.30;;;;;;4945002;29;20059;-70
2023/06/13 13:38:59;;;;;;;4.72;2.22;;;41.60;33.20;;;;;;4945562;29;20369;-70
2023/06/13 13:41:32;;;;;;;5.18;2.20;;;43.10;33.50;;;;;;4945823;28;20309;-72
2023/06/13 13:43:58;;;;;;;4.10;2.58;;;42.90;32.40;;;;;;4944177;29;20191;-74
2023/06/13 13:46:24;;;;;;;6.30;2.20;;;42.80;33.20;;;;;;4945767;28;20243;-71
2023/06/13 13:48:50;;;;;;;4.85;2.30;;;43.70;33.10;;;;;;4964427;29;20042;-72
2023/06/13 13:51:15;;;;;;;6.05;2.03;;;43.70;33.40;;;;;;4964871;28;20306;-73
2023/06/13 13:53:41;;;;;;;4.90;2.42;;;44.10;33.10;;;;;;4964930;28;20083;-71
2023/06/13 13:56:07;;;;;;;4.72;2.42;;;43.50;32.60;;;;;;4964494;29;20103;-73
2023/06/13 13:58:33;;;;;;;8.13;2.08;;;43.20;33.20;;;;;;4965111;28;20082;-71
2023/06/13 14:00:59;;;;;;;4.80;2.47;;;44.00;32.70;;;;;;4964422;28;20031;-71
2023/06/13 14:03:24;;;;;;;4.53;2.53;;;43.90;32.80;;;;;;4964861;28;20053;-71
2023/06/13 14:05:50;;;;;;;9.75;2.35;;;43.40;33.00;;;;;;4964810;28;20061;-72
2023/06/13 14:08:16;;;;;;;5.60;2.00;;;43.30;32.80;;;;;;4964555;28;20038;-71
2023/06/13 14:10:42;;;;;;;3.80;2.33;;;43.50;33.10;;;;;;4964804;29;20139;-71
2023/06/13 14:13:08;;;;;;;5.03;2.25;;;43.90;33.00;;;;;;4963982;28;20210;-72
2023/06/13 14:15:33;;;;;;;4.70;2.92;;;43.10;33.00;;;;;;4964823;29;20067;-73
2023/06/13 14:18:00;;;;;;;4.50;2.30;;;43.00;33.10;;;;;;4964333;28;20031;-72
2023/06/13 14:20:25;;;;;;;5.35;2.45;;;43.10;32.60;;;;;;4964681;28;20038;-71
2023/06/13 14:22:51;;;;;;;3.53;2.25;;;43.40;32.50;;;;;;4964777;28;20024;-72
2023/06/13 14:25:17;;;;;;;7.18;2.20;;;43.20;32.20;;;;;;4964000;28;20057;-71
2023/06/13 14:27:42;;;;;;;4.18;2.10;;;43.10;32.40;;;;;;4964622;28;20046;-73
2023/06/13 14:30:08;;;;;;;7.28;3.70;;;43.50;32.60;;;;;;4963814;28;20031;-71
2023/06/13 14:32:34;;;;;;;7.72;6.05;;;43.80;32.20;;;;;;4964555;28;20058;-71
2023/06/13 14:35:00;;;;;;;6.07;2.28;;;44.70;32.10;;;;;;4964274;29;20039;-70
2023/06/13 14:37:26;;;;;;;4.32;2.55;;;44.30;31.70;;;;;;4964393;29;20035;-72
2023/06/13 14:39:52;;;;;;;5.93;2.20;;;44.10;32.10;;;;;;4964608;28;20047;-73
2023/06/13 14:42:18;;;;;;;4.78;2.03;;;44.30;32.20;;;;;;4964165;29;20102;-70
2023/06/13 14:44:45;;;;;;;4.47;2.15;;;44.80;31.80;;;;;;4964492;29;20217;-71
2023/06/13 14:47:14;;;;;;;6.95;2.10;;;45.80;31.50;;;;;;4958483;29;20046;-71
2023/06/13 14:49:40;;;;;;;5.78;2.35;;;45.70;31.30;;;;;;4945176;29;20083;-71
2023/06/13 14:52:07;;;;;;;6.07;2.20;;;46.20;31.20;;;;;;4944891;29;20039;-69
2023/06/13 14:54:32;;;;;;;5.33;2.17;;;45.30;31.40;;;;;;4946594;29;20203;-73
2023/06/13 14:56:58;;;;;;;5.30;2.10;;;46.20;31.30;;;;;;4955256;29;20430;-72
2023/06/13 14:59:24;;;;;;;7.53;2.43;;;46.20;30.90;;;;;;4961261;29;20078;-70
2023/06/13 15:01:50;;;;;;;3.23;2.17;;;45.40;30.90;;;;;;4955882;29;20245;-70
2023/06/13 15:04:16;;;;;;;4.80;2.40;;;46.20;31.20;;;;;;4947900;29;20027;-70
2023/06/13 15:06:56;;;;;;;3.40;2.30;;;45.30;31.40;;;;;;4964755;28;20132;-75
2023/06/13 15:09:23;;;;;;;2.97;2.10;;;45.90;31.20;;;;;;4956168;28;20032;-70
2023/06/13 15:11:48;;;;;;;3.70;2.42;;;45.90;31.20;;;;;;4945411;29;20034;-70
2023/06/13 15:14:14;;;;;;;4.07;2.42;;;45.20;31.30;;;;;;4943589;29;20035;-72
2023/06/13 15:16:40;;;;;;;3.33;2.08;;;45.90;31.50;;;;;;4945678;29;20305;-72
2023/06/13 15:19:06;;;;;;;5.38;2.40;;;45.40;31.50;;;;;;4963481;29;20080;-76
2023/06/13 15:21:38;;;;;;;4.70;2.40;;;45.90;31.40;;;;;;4952302;28;20280;-74
2023/06/13 15:24:04;;;;;;;4.10;2.20;;;46.20;31.00;;;;;;4944492;29;20031;-72
2023/06/13 15:26:30;;;;;;;4.05;2.22;;;46.80;30.60;;;;;;4952334;29;20107;-71
2023/06/13 15:28:56;;;;;;;4.33;2.00;;;46.40;30.60;;;;;;4965140;28;20023;-72
2023/06/13 15:31:22;;;;;;;3.73;2.10;;;46.70;30.80;;;;;;4963584;28;20434;-72
2023/06/13 15:33:48;;;;;;;3.75;2.20;;;46.70;31.10;;;;;;4963931;28;20463;-72
2023/06/13 15:36:13;;;;;;;3.83;2.07;;;46.30;30.60;;;;;;4954939;29;20035;-71
2023/06/13 15:38:39;;;;;;;5.68;2.20;;;45.20;30.50;;;;;;4944018;29;20032;-73
2023/06/13 15:41:05;;;;;;;4.57;2.42;;;44.50;30.10;;;;;;4944758;29;20204;-72
2023/06/13 15:43:31;;;;;;;3.55;2.28;;;43.00;30.30;;;;;;4948571;29;20046;-72
2023/06/13 15:45:57;;;;;;;3.03;2.03;;;43.70;30.70;;;;;;4948196;29;20024;-71
2023/06/13 15:48:22;;;;;;;7.25;4.22;;;44.00;31.00;;;;;;4947868;29;20087;-72
2023/06/13 15:50:48;;;;;;;4.43;2.88;;;43.60;30.70;;;;;;4947037;29;20050;-73
2023/06/13 15:53:15;;;;;;;4.78;2.78;;;44.10;31.00;;;;;;4947648;29;20046;-74
2023/06/13 15:55:44;;;;;;;3.17;2.20;;;45.20;31.10;;;;;;4948295;29;20046;-73
2023/06/13 15:58:10;;;;;;;5.05;2.58;;;45.20;30.80;;;;;;4947903;29;20031;-73
2023/06/13 16:00:40;;;;;;;3.58;2.00;;;44.30;31.60;;;;;;4947706;29;20257;-74
2023/06/13 16:03:06;;;;;;;5.53;2.30;;;44.30;30.90;;;;;;4947378;29;20070;-73
2023/06/13 16:05:32;;;;;;;6.65;2.22;;;45.10;31.10;;;;;;4947644;29;20043;-74
2023/06/13 16:07:58;;;;;;;5.60;2.47;;;44.40;31.40;;;;;;4947520;29;20099;-74
2023/06/13 16:10:24;;;;;;;3.15;2.10;;;44.00;31.60;;;;;;4947437;29;20030;-73
2023/06/13 16:12:53;;;;;;;3.78;2.00;;;43.90;31.30;;;;;;4947741;29;20031;-71
2023/06/13 16:15:20;;;;;;;4.88;2.50;;;43.00;32.00;;;;;;4947050;29;20095;-73
2023/06/13 16:17:46;;;;;;;4.50;2.67;;;43.10;31.90;;;;;;4947687;29;20020;-73
2023/06/13 16:20:12;;;;;;;4.38;2.20;;;42.80;32.40;;;;;;4947259;29;20670;-72
2023/06/13 16:22:38;;;;;;;4.82;1.92;;;42.70;32.40;;;;;;4948702;29;20039;-73
2023/06/13 16:25:05;;;;;;;4.65;2.20;;;42.20;32.60;;;;;;4949616;28;20062;-72
2023/06/13 16:27:31;;;;;;;3.45;2.10;;;42.20;32.60;;;;;;4947810;29;20098;-72
2023/06/13 16:29:56;;;;;;;4.70;2.67;;;42.10;32.00;;;;;;4962619;29;20031;-71
2023/06/13 16:32:22;;;;;;;3.05;2.30;;;41.90;32.10;;;;;;4952732;29;20059;-71
2023/06/13 16:34:48;;;;;;;2.95;2.20;;;42.00;32.10;;;;;;4966443;29;20035;-72
2023/06/13 16:37:13;;;;;;;4.40;3.08;;;43.40;32.20;;;;;;4966123;29;20039;-72
2023/06/13 16:39:39;;;;;;;4.10;2.72;;;43.80;31.70;;;;;;4952553;29;20024;-72
2023/06/13 16:42:07;;;;;;;6.15;2.85;;;44.00;31.80;;;;;;4946382;29;20329;-72
2023/06/13 16:44:34;;;;;;;5.53;2.40;;;44.70;31.60;;;;;;4930938;29;20036;-70
2023/06/13 16:47:00;;;;;;;3.63;2.30;;;43.40;31.90;;;;;;4947440;29;20385;-72
2023/06/13 16:49:26;;;;;;;7.03;2.70;;;42.30;32.20;;;;;;4946821;29;20047;-72
2023/06/13 16:51:52;;;;;;;4.40;2.33;;;41.40;32.50;;;;;;4947042;29;20213;-72
2023/06/13 16:54:18;;;;;;;3.95;2.13;;;41.40;32.90;;;;;;4946257;29;20047;-70
2023/06/13 16:56:43;;;;;;;4.72;1.95;;;41.30;32.40;;;;;;4947293;29;20050;-75
2023/06/13 16:59:12;;;;;;;5.20;2.80;;;40.70;32.40;;;;;;4946660;29;20055;-74
2023/06/13 17:01:38;;;;;;;4.53;2.40;;;40.20;33.50;;;;;;4946600;29;20031;-73
2023/06/13 17:04:03;;;;;;;3.90;2.60;;;40.50;32.70;;;;;;4947030;29;20064;-74
2023/06/13 17:06:29;;;;;;;3.40;2.40;;;40.40;33.20;;;;;;4946438;29;20032;-74
2023/06/13 17:08:55;;;;;;;4.38;2.20;;;39.80;32.90;;;;;;4947134;29;20191;-73
2023/06/13 17:11:21;;;;;;;3.92;2.80;;;39.80;33.10;;;;;;4945764;29;20083;-73
2023/06/13 17:13:47;;;;;;;4.97;2.35;;;39.60;33.00;;;;;;4946968;29;20034;-73
2023/06/13 17:16:16;;;;;;;7.05;5.85;;;39.10;33.00;;;;;;4946076;29;20039;-75
2023/06/13 17:18:42;;;;;;;7.25;5.88;;;38.30;33.10;;;;;;4945861;29;20056;-75
2023/06/13 17:21:08;;;;;;;4.18;2.55;;;38.40;33.50;;;;;;4945227;29;20072;-73
2023/06/13 17:23:34;;;;;;;4.22;2.55;;;38.60;33.20;;;;;;4946531;29;20044;-70
2023/06/13 17:26:00;;;;;;;5.10;2.58;;;38.20;33.20;;;;;;4947008;29;20030;-71
2023/06/13 17:28:26;;;;;;;4.03;2.60;;;38.20;33.30;;;;;;4946080;29;20031;-73
2023/06/13 17:30:52;;;;;;;4.60;2.50;;;38.90;33.40;;;;;;4946844;29;20035;-70
2023/06/13 17:33:18;;;;;;;3.80;2.40;;;39.40;33.70;;;;;;4945951;29;20046;-72
2023/06/13 17:35:44;;;;;;;4.72;2.45;;;39.00;32.90;;;;;;4946440;29;20040;-73
2023/06/13 17:38:10;;;;;;;4.15;2.38;;;39.20;32.70;;;;;;4945695;29;20095;-70
2023/06/13 17:40:36;;;;;;;4.68;2.35;;;38.70;32.90;;;;;;4945050;29;20039;-72
2023/06/13 17:43:02;;;;;;;3.83;2.38;;;38.70;32.90;;;;;;4944904;29;20059;-70
2023/06/13 17:45:28;;;;;;;3.97;2.08;;;38.80;33.00;;;;;;4945446;29;20114;-72
2023/06/13 17:47:54;;;;;;;3.20;2.30;;;39.10;33.40;;;;;;4946356;29;20250;-72
2023/06/13 17:50:21;;;;;;;6.25;2.60;;;38.70;33.40;;;;;;4945763;29;20020;-72